Time;durP1;ratioP1;P1;durP2;ratioP2;P2;SDS_P1;SDS_P2;PMS_P1;PMS_P2;Temp;Humidity;BMP_temperature;BMP_pressure;BME280_temperature;BME280_humidity;BME280_pressure;Samples;Min_cycle;Max_cycle;Signal;HPM_P1;HPM_P2
2021/07/14 00:02:13;;;;;;;31.03;27.73;;;;;;;;;;4952466;29;20346;-73
2021/07/14 00:04:58;;;;;;;35.10;29.93;;;;;;;;;;4952333;29;20208;-73
2021/07/14 00:07:43;;;;;;;33.80;30.13;;;;;;;;;;4951521;29;20215;-73
2021/07/14 00:10:29;;;;;;;33.40;29.90;;;;;;;;;;4909570;28;1060633;-73
2021/07/14 00:13:26;;;;;;;33.83;30.03;;;;;;;;;;4953171;29;20590;-72
2021/07/14 00:22:18;;;;;;;33.07;29.47;;;;;;;;;;4952857;29;20267;-74
2021/07/14 00:25:03;;;;;;;36.28;32.53;;;;;;;;;;4952636;29;20456;-74
2021/07/14 00:27:49;;;;;;;33.63;29.30;;;;;;;;;;4946684;29;20797;-74
2021/07/14 00:30:37;;;;;;;33.90;30.40;;;;;;;;;;4952610;29;20233;-73
2021/07/14 00:33:22;;;;;;;33.23;29.67;;;;;;;;;;4952622;29;20251;-74
2021/07/14 00:36:08;;;;;;;32.33;28.90;;;;;;;;;;4952833;29;20208;-74
2021/07/14 00:38:53;;;;;;;34.63;29.63;;;;;;;;;;4946140;29;20201;-73
2021/07/14 00:41:38;;;;;;;33.27;29.27;;;;;;;;;;4952611;28;20244;-73
2021/07/14 00:44:23;;;;;;;33.67;30.00;;;;;;;;;;4952629;29;20344;-74
2021/07/14 00:47:08;;;;;;;33.63;29.30;;;;;;;;;;4952093;29;20205;-74
2021/07/14 00:49:54;;;;;;;31.60;28.27;;;;;;;;;;4952427;29;20212;-74
2021/07/14 00:52:40;;;;;;;33.13;29.73;;;;;;;;;;4952454;29;20213;-73
2021/07/14 00:55:25;;;;;;;33.93;30.40;;;;;;;;;;4943874;29;20225;-74
2021/07/14 00:58:10;;;;;;;33.43;29.87;;;;;;;;;;4948623;29;20341;-73
2021/07/14 01:00:55;;;;;;;33.20;29.23;;;;;;;;;;4944967;28;20734;-73
2021/07/14 01:03:41;;;;;;;31.00;27.63;;;;;;;;;;4952095;29;20212;-73
2021/07/14 01:06:29;;;;;;;31.13;27.80;;;;;;;;;;4952240;29;20216;-72
2021/07/14 01:09:17;;;;;;;31.40;28.10;;;;;;;;;;4946809;29;20272;-74
2021/07/14 01:12:07;;;;;;;30.37;27.17;;;;;;;;;;4944937;29;20244;-74
2021/07/14 01:14:57;;;;;;;30.87;27.73;;;;;;;;;;4952119;29;20265;-73
2021/07/14 01:17:47;;;;;;;29.87;26.77;;;;;;;;;;4951433;29;20210;-73
2021/07/14 01:20:40;;;;;;;28.10;25.20;;;;;;;;;;4952020;29;20242;-73
2021/07/14 01:23:34;;;;;;;32.53;29.25;;;;;;;;;;4947779;29;20538;-74
2021/07/14 01:26:34;;;;;;;30.27;27.27;;;;;;;;;;4952082;29;20205;-74
2021/07/14 01:29:21;;;;;;;29.07;25.97;;;;;;;;;;4946264;28;20247;-74
2021/07/14 01:32:07;;;;;;;31.90;27.90;;;;;;;;;;4956053;29;20333;-74
2021/07/14 01:34:56;;;;;;;32.83;27.67;;;;;;;;;;4955723;29;20220;-74
2021/07/14 01:37:44;;;;;;;28.47;25.57;;;;;;;;;;4955260;29;20217;-74
2021/07/14 01:40:31;;;;;;;31.53;25.70;;;;;;;;;;4950347;29;20276;-74
2021/07/14 01:43:16;;;;;;;29.10;26.13;;;;;;;;;;4948726;29;20208;-73
2021/07/14 01:46:02;;;;;;;30.67;27.10;;;;;;;;;;4955185;29;20268;-73
2021/07/14 01:48:49;;;;;;;31.17;27.93;;;;;;;;;;4954794;29;20220;-73
2021/07/14 01:51:36;;;;;;;29.87;26.77;;;;;;;;;;4950355;29;20224;-75
2021/07/14 01:54:23;;;;;;;33.03;29.40;;;;;;;;;;4956162;29;20201;-74
2021/07/14 01:57:09;;;;;;;30.93;27.63;;;;;;;;;;4954706;29;20689;-74
2021/07/14 01:59:54;;;;;;;32.73;29.37;;;;;;;;;;4954864;29;20325;-74
2021/07/14 02:02:50;;;;;;;34.77;29.97;;;;;;;;;;4943645;29;20213;-74
2021/07/14 02:05:36;;;;;;;35.83;30.03;;;;;;;;;;4953988;29;20771;-73
2021/07/14 02:08:22;;;;;;;35.53;31.50;;;;;;;;;;4940643;29;20704;-74
2021/07/14 02:11:07;;;;;;;43.17;32.97;;;;;;;;;;4948048;29;20877;-75
2021/07/14 02:13:53;;;;;;;38.23;32.67;;;;;;;;;;4937354;29;20426;-74
2021/07/14 02:16:38;;;;;;;40.43;33.03;;;;;;;;;;4951731;29;20261;-74
2021/07/14 02:19:26;;;;;;;44.93;33.27;;;;;;;;;;4952609;29;20348;-73
2021/07/14 02:22:11;;;;;;;46.28;34.85;;;;;;;;;;4937041;29;20408;-73
2021/07/14 02:24:56;;;;;;;42.53;34.70;;;;;;;;;;4971307;23;20312;-72
2021/07/14 02:27:42;;;;;;;43.30;35.63;;;;;;;;;;4937399;29;20607;-72
2021/07/14 02:30:27;;;;;;;43.67;35.83;;;;;;;;;;4936349;29;20224;-73
2021/07/14 02:33:14;;;;;;;42.43;34.97;;;;;;;;;;4950642;29;20333;-73
2021/07/14 02:36:03;;;;;;;44.27;34.60;;;;;;;;;;4954345;29;20215;-73
2021/07/14 02:38:51;;;;;;;43.47;33.20;;;;;;;;;;4934205;29;20792;-73
2021/07/14 02:41:43;;;;;;;38.93;32.30;;;;;;;;;;4936393;29;20587;-73
2021/07/14 02:44:28;;;;;;;38.23;33.20;;;;;;;;;;4948266;29;20341;-73
2021/07/14 02:47:14;;;;;;;45.93;34.30;;;;;;;;;;4921223;29;20218;-73
2021/07/14 02:50:00;;;;;;;39.73;33.43;;;;;;;;;;5151697;23;20512;-72
2021/07/14 02:52:49;;;;;;;40.97;31.93;;;;;;;;;;4964337;28;20479;-72
2021/07/14 02:55:35;;;;;;;35.67;31.77;;;;;;;;;;4971972;28;20208;-72
2021/07/14 02:58:22;;;;;;;40.40;32.60;;;;;;;;;;4953714;28;20295;-71
2021/07/14 03:01:07;;;;;;;36.13;31.23;;;;;;;;;;4949029;28;20237;-72
2021/07/14 03:03:53;;;;;;;35.20;31.03;;;;;;;;;;4973069;23;20372;-76
2021/07/14 03:06:39;;;;;;;34.23;29.80;;;;;;;;;;4963565;28;20281;-74
2021/07/14 03:09:36;;;;;;;35.43;30.03;;;;;;;;;;4967862;28;20223;-74
2021/07/14 03:12:22;;;;;;;30.50;27.10;;;;;;;;;;4954182;28;20217;-75
2021/07/14 03:15:10;;;;;;;31.30;28.00;;;;;;;;;;4950032;29;20205;-76
2021/07/14 03:17:55;;;;;;;30.73;27.43;;;;;;;;;;4934156;29;20620;-75
2021/07/14 03:20:40;;;;;;;30.43;27.30;;;;;;;;;;4934997;29;20269;-75
2021/07/14 03:23:26;;;;;;;37.80;34.03;;;;;;;;;;4936679;29;20723;-75
2021/07/14 03:26:12;;;;;;;30.97;27.70;;;;;;;;;;4934865;29;20289;-74
2021/07/14 03:28:57;;;;;;;31.20;27.90;;;;;;;;;;4952642;29;20209;-75
2021/07/14 03:31:42;;;;;;;27.03;24.27;;;;;;;;;;4953058;29;20208;-76
2021/07/14 03:34:27;;;;;;;29.43;26.53;;;;;;;;;;4953635;29;20236;-75
2021/07/14 03:37:12;;;;;;;28.97;26.13;;;;;;;;;;4953148;29;20700;-75
2021/07/14 03:39:57;;;;;;;27.50;24.80;;;;;;;;;;4953337;29;20215;-75
2021/07/14 03:42:44;;;;;;;29.20;26.33;;;;;;;;;;4953615;29;20300;-75
2021/07/14 03:45:30;;;;;;;29.87;26.83;;;;;;;;;;4953449;29;20205;-75
2021/07/14 03:48:17;;;;;;;32.27;28.90;;;;;;;;;;4952386;29;20592;-75
2021/07/14 03:51:03;;;;;;;29.47;26.43;;;;;;;;;;4953474;29;20639;-76
2021/07/14 03:53:49;;;;;;;25.73;22.73;;;;;;;;;;4952991;28;20241;-75
2021/07/14 03:56:34;;;;;;;30.97;27.50;;;;;;;;;;4952750;29;20201;-74
2021/07/14 03:59:21;;;;;;;30.10;27.00;;;;;;;;;;4952010;29;20208;-75
2021/07/14 04:02:07;;;;;;;32.07;28.37;;;;;;;;;;4953206;29;20607;-75
2021/07/14 04:04:52;;;;;;;33.27;29.67;;;;;;;;;;4953236;29;20220;-74
2021/07/14 04:07:38;;;;;;;32.13;27.03;;;;;;;;;;4952246;29;20197;-75
2021/07/14 04:10:24;;;;;;;30.60;27.43;;;;;;;;;;4953013;29;20898;-75
2021/07/14 04:13:09;;;;;;;31.27;28.13;;;;;;;;;;4952844;29;20236;-76
2021/07/14 04:15:56;;;;;;;30.27;27.03;;;;;;;;;;4946870;29;20208;-75
2021/07/14 04:18:41;;;;;;;30.40;27.20;;;;;;;;;;4952040;29;20307;-75
2021/07/14 04:21:26;;;;;;;35.10;31.52;;;;;;;;;;4952227;29;20425;-76
2021/07/14 04:24:11;;;;;;;29.80;26.70;;;;;;;;;;4952758;29;20331;-74
2021/07/14 04:26:56;;;;;;;30.23;27.23;;;;;;;;;;4945164;29;20220;-74
2021/07/14 04:29:41;;;;;;;30.60;27.53;;;;;;;;;;4951084;29;20236;-72
2021/07/14 04:32:27;;;;;;;31.33;28.20;;;;;;;;;;4952248;29;20337;-74
2021/07/14 04:35:12;;;;;;;31.00;28.00;;;;;;;;;;4952771;29;20209;-75
2021/07/14 04:37:58;;;;;;;29.30;26.07;;;;;;;;;;4951855;29;20925;-75
2021/07/14 04:40:43;;;;;;;29.63;26.47;;;;;;;;;;4952275;29;20208;-75
2021/07/14 04:43:29;;;;;;;28.93;25.87;;;;;;;;;;4952512;29;20232;-74
2021/07/14 04:46:14;;;;;;;29.17;26.23;;;;;;;;;;4947718;29;20256;-75
2021/07/14 04:49:00;;;;;;;28.30;25.47;;;;;;;;;;4944941;29;20211;-75
2021/07/14 04:51:45;;;;;;;26.50;23.90;;;;;;;;;;4952448;29;20332;-75
2021/07/14 04:54:31;;;;;;;25.33;22.93;;;;;;;;;;4952449;29;20747;-75
2021/07/14 04:57:16;;;;;;;27.70;25.10;;;;;;;;;;4946376;29;20216;-74
2021/07/14 05:00:01;;;;;;;27.90;25.23;;;;;;;;;;4952004;29;20601;-73
2021/07/14 05:02:46;;;;;;;26.30;23.60;;;;;;;;;;4951734;29;20248;-75
2021/07/14 05:05:33;;;;;;;25.33;22.80;;;;;;;;;;4951611;29;20681;-75
2021/07/14 05:08:18;;;;;;;27.60;24.87;;;;;;;;;;4951315;29;20957;-75
2021/07/14 05:11:03;;;;;;;25.53;22.83;;;;;;;;;;4951689;29;20248;-76
2021/07/14 05:13:48;;;;;;;26.77;24.30;;;;;;;;;;4952138;29;20748;-75
2021/07/14 05:16:33;;;;;;;27.57;24.70;;;;;;;;;;4947426;29;20200;-75
2021/07/14 05:19:18;;;;;;;25.93;23.30;;;;;;;;;;4951889;29;20219;-75
2021/07/14 05:22:04;;;;;;;31.67;28.57;;;;;;;;;;4942710;29;20430;-75
2021/07/14 05:24:49;;;;;;;27.13;24.37;;;;;;;;;;4934486;29;20356;-76
2021/07/14 05:27:34;;;;;;;26.07;23.57;;;;;;;;;;4932805;29;20285;-75
2021/07/14 05:30:19;;;;;;;26.67;23.87;;;;;;;;;;4933378;29;20229;-76
2021/07/14 05:33:04;;;;;;;26.00;23.40;;;;;;;;;;4933481;29;20300;-74
2021/07/14 05:35:52;;;;;;;27.70;24.90;;;;;;;;;;4933317;29;20499;-76
2021/07/14 05:38:38;;;;;;;26.13;23.47;;;;;;;;;;4932465;29;20272;-76
2021/07/14 05:41:23;;;;;;;26.43;22.40;;;;;;;;;;4933074;29;20201;-75
2021/07/14 05:44:08;;;;;;;25.57;22.97;;;;;;;;;;4945576;29;20743;-76
2021/07/14 05:46:53;;;;;;;25.37;22.87;;;;;;;;;;4951928;29;20916;-76
2021/07/14 05:49:38;;;;;;;24.77;22.10;;;;;;;;;;4952458;29;20205;-76
2021/07/14 05:52:23;;;;;;;25.67;23.10;;;;;;;;;;4952553;29;20692;-75
2021/07/14 05:55:11;;;;;;;24.73;22.27;;;;;;;;;;4952242;29;20209;-76
2021/07/14 05:57:56;;;;;;;24.70;22.20;;;;;;;;;;4951323;29;20284;-76
2021/07/14 06:00:41;;;;;;;25.30;21.93;;;;;;;;;;4952142;29;20213;-75
2021/07/14 06:03:26;;;;;;;24.97;22.33;;;;;;;;;;4952545;29;20232;-76
2021/07/14 06:06:11;;;;;;;24.83;22.43;;;;;;;;;;4943791;29;20337;-75
2021/07/14 06:08:56;;;;;;;23.50;21.23;;;;;;;;;;4936473;29;20553;-74
2021/07/14 06:11:43;;;;;;;24.70;22.40;;;;;;;;;;4936969;29;20732;-72
2021/07/14 06:14:28;;;;;;;23.70;21.20;;;;;;;;;;4935321;29;20246;-76
2021/07/14 06:17:13;;;;;;;23.43;21.17;;;;;;;;;;4939723;29;20596;-75
2021/07/14 06:19:58;;;;;;;23.73;21.33;;;;;;;;;;4940418;29;20919;-75
2021/07/14 06:22:42;;;;;;;23.43;21.40;;;;;;;;;;4950325;29;20257;-76
2021/07/14 06:25:27;;;;;;;24.37;22.00;;;;;;;;;;4945799;29;20213;-75
2021/07/14 06:28:14;;;;;;;24.07;21.80;;;;;;;;;;4947897;29;20217;-75
2021/07/14 06:30:59;;;;;;;25.40;23.07;;;;;;;;;;4939724;29;20290;-77
2021/07/14 06:33:43;;;;;;;23.50;21.37;;;;;;;;;;4947620;29;20716;-76
2021/07/14 06:36:28;;;;;;;24.77;22.27;;;;;;;;;;4936213;29;20208;-76
2021/07/14 06:39:13;;;;;;;25.23;22.93;;;;;;;;;;4955369;29;20304;-75
2021/07/14 06:41:59;;;;;;;27.27;24.63;;;;;;;;;;4937364;29;20217;-77
2021/07/14 06:44:46;;;;;;;25.40;23.03;;;;;;;;;;4948970;29;20308;-76
2021/07/14 06:47:31;;;;;;;26.27;23.47;;;;;;;;;;4935327;29;20269;-76
2021/07/14 06:50:16;;;;;;;28.73;25.80;;;;;;;;;;4944822;29;20251;-74
2021/07/14 06:53:03;;;;;;;31.17;27.97;;;;;;;;;;4937434;29;20264;-74
2021/07/14 06:55:48;;;;;;;28.27;25.40;;;;;;;;;;4941557;29;20340;-72
2021/07/14 06:58:36;;;;;;;32.20;28.80;;;;;;;;;;4945450;29;20201;-74
2021/07/14 07:01:22;;;;;;;33.97;30.27;;;;;;;;;;4945602;29;20669;-73
2021/07/14 07:04:07;;;;;;;33.33;28.20;;;;;;;;;;4948965;29;20335;-73
2021/07/14 07:06:52;;;;;;;34.60;30.00;;;;;;;;;;4937433;29;20625;-73
2021/07/14 07:09:37;;;;;;;33.60;30.03;;;;;;;;;;4944370;29;20498;-73
2021/07/14 07:12:22;;;;;;;32.73;29.20;;;;;;;;;;4936590;29;20213;-74
2021/07/14 07:15:07;;;;;;;33.33;29.83;;;;;;;;;;4935395;29;20316;-73
2021/07/14 07:17:56;;;;;;;33.53;29.93;;;;;;;;;;4940013;29;20298;-74
2021/07/14 07:20:41;;;;;;;33.92;30.45;;;;;;;;;;4942192;29;20900;-74
2021/07/14 07:23:26;;;;;;;28.37;25.47;;;;;;;;;;4944964;29;20308;-73
2021/07/14 07:26:12;;;;;;;28.83;25.83;;;;;;;;;;4945852;29;20297;-71
2021/07/14 07:29:03;;;;;;;31.83;28.43;;;;;;;;;;4944309;29;20616;-74
2021/07/14 07:31:48;;;;;;;29.63;26.57;;;;;;;;;;4934631;29;20330;-74
2021/07/14 07:34:35;;;;;;;28.40;25.47;;;;;;;;;;4950326;29;20228;-74
2021/07/14 07:37:20;;;;;;;26.87;24.33;;;;;;;;;;4942052;29;20209;-75
2021/07/14 07:40:05;;;;;;;25.47;22.10;;;;;;;;;;4939536;29;20765;-74
2021/07/14 07:42:51;;;;;;;28.17;25.37;;;;;;;;;;4950632;29;20229;-74
2021/07/14 07:45:36;;;;;;;28.43;25.47;;;;;;;;;;4942685;29;20702;-75
2021/07/14 07:48:21;;;;;;;28.67;25.67;;;;;;;;;;4939830;29;20221;-74
2021/07/14 07:51:09;;;;;;;29.27;26.37;;;;;;;;;;4946176;29;20744;-76
2021/07/14 07:53:54;;;;;;;30.40;27.27;;;;;;;;;;4946088;29;20233;-75
2021/07/14 07:56:39;;;;;;;29.73;26.83;;;;;;;;;;4952424;29;20232;-74
2021/07/14 07:59:24;;;;;;;30.40;27.23;;;;;;;;;;4942601;29;20217;-75
2021/07/14 08:02:09;;;;;;;31.27;28.27;;;;;;;;;;4946099;29;20830;-74
2021/07/14 08:04:54;;;;;;;32.50;29.13;;;;;;;;;;4951905;29;20810;-74
2021/07/14 08:07:40;;;;;;;32.50;29.20;;;;;;;;;;4941608;29;20209;-75
2021/07/14 08:10:25;;;;;;;33.57;30.00;;;;;;;;;;4946175;29;20729;-74
2021/07/14 08:13:10;;;;;;;33.40;29.90;;;;;;;;;;4951625;29;20232;-77
2021/07/14 08:15:56;;;;;;;33.70;29.30;;;;;;;;;;4951736;29;20230;-77
2021/07/14 08:18:41;;;;;;;34.20;30.63;;;;;;;;;;4947807;29;20205;-77
2021/07/14 08:21:26;;;;;;;40.92;36.72;;;;;;;;;;4952528;29;20433;-77
2021/07/14 08:24:13;;;;;;;37.20;33.23;;;;;;;;;;4951659;29;20228;-76
2021/07/14 08:26:57;;;;;;;35.07;31.40;;;;;;;;;;4941055;29;20214;-76
2021/07/14 08:29:43;;;;;;;35.17;30.17;;;;;;;;;;4941633;29;20204;-76
2021/07/14 08:32:29;;;;;;;34.53;30.80;;;;;;;;;;4937313;29;20252;-75
2021/07/14 08:35:14;;;;;;;36.07;32.27;;;;;;;;;;4939341;29;20212;-76
2021/07/14 08:37:59;;;;;;;35.83;32.13;;;;;;;;;;4943838;29;20348;-74
2021/07/14 08:40:46;;;;;;;34.93;31.17;;;;;;;;;;4944802;29;20209;-75
2021/07/14 08:43:33;;;;;;;33.53;29.90;;;;;;;;;;4936022;29;20600;-76
2021/07/14 08:46:20;;;;;;;36.50;32.67;;;;;;;;;;4940062;29;20204;-77
2021/07/14 08:49:05;;;;;;;35.90;32.00;;;;;;;;;;4945671;29;20303;-77
2021/07/14 08:51:52;;;;;;;38.00;34.03;;;;;;;;;;4944628;29;20229;-77
2021/07/14 08:54:37;;;;;;;37.23;33.43;;;;;;;;;;4945762;29;20611;-77
2021/07/14 08:57:24;;;;;;;39.47;34.53;;;;;;;;;;4936773;29;20221;-77
2021/07/14 09:00:10;;;;;;;40.57;35.37;;;;;;;;;;4953248;29;20587;-77
2021/07/14 09:03:03;;;;;;;37.10;33.13;;;;;;;;;;4939972;29;20236;-74
2021/07/14 09:05:48;;;;;;;38.00;33.90;;;;;;;;;;4943149;29;20221;-75
2021/07/14 09:08:33;;;;;;;41.27;36.77;;;;;;;;;;4947758;29;20232;-75
2021/07/14 09:11:19;;;;;;;39.70;35.27;;;;;;;;;;4947002;29;20723;-76
2021/07/14 09:14:05;;;;;;;39.43;35.43;;;;;;;;;;4936488;29;20805;-77
2021/07/14 09:16:50;;;;;;;39.90;35.63;;;;;;;;;;4941991;29;20340;-77
2021/07/14 09:19:35;;;;;;;37.60;33.65;;;;;;;;;;4947589;29;20423;-77
2021/07/14 09:22:20;;;;;;;38.40;34.33;;;;;;;;;;4951811;29;20320;-77
2021/07/14 09:25:10;;;;;;;38.63;32.77;;;;;;;;;;4943922;29;20213;-76
2021/07/14 09:27:56;;;;;;;35.17;31.57;;;;;;;;;;4942638;29;20291;-76
2021/07/14 09:30:42;;;;;;;35.73;31.93;;;;;;;;;;4932687;29;20212;-76
2021/07/14 09:33:28;;;;;;;36.37;32.50;;;;;;;;;;4940940;29;20237;-75
2021/07/14 09:36:13;;;;;;;38.00;33.20;;;;;;;;;;4940792;29;20690;-75
2021/07/14 09:39:03;;;;;;;35.60;31.77;;;;;;;;;;4940463;29;20204;-76
2021/07/14 09:41:48;;;;;;;39.77;31.63;;;;;;;;;;4945889;29;20307;-74
2021/07/14 09:44:33;;;;;;;35.70;31.83;;;;;;;;;;4940598;29;20229;-74
2021/07/14 09:47:22;;;;;;;36.23;31.43;;;;;;;;;;4940043;29;20358;-74
2021/07/14 09:50:08;;;;;;;32.63;29.17;;;;;;;;;;4941119;29;20285;-75
2021/07/14 09:52:59;;;;;;;34.93;31.33;;;;;;;;;;4950269;29;20745;-75
2021/07/14 09:55:44;;;;;;;33.90;30.27;;;;;;;;;;4937350;29;20568;-75
2021/07/14 09:58:30;;;;;;;32.40;29.00;;;;;;;;;;4944847;29;20703;-76
2021/07/14 10:01:16;;;;;;;34.80;31.20;;;;;;;;;;4946234;29;20726;-73
2021/07/14 10:04:04;;;;;;;35.80;31.77;;;;;;;;;;4954300;29;20233;-73
2021/07/14 10:06:49;;;;;;;33.77;29.27;;;;;;;;;;4941804;29;20211;-74
2021/07/14 10:09:34;;;;;;;31.87;28.47;;;;;;;;;;4946239;29;20357;-74
2021/07/14 10:12:31;;;;;;;35.47;31.77;;;;;;;;;;4946548;29;20596;-73
2021/07/14 10:15:19;;;;;;;32.80;29.17;;;;;;;;;;4939706;29;20238;-76
2021/07/14 10:18:04;;;;;;;34.43;30.80;;;;;;;;;;4939307;29;20212;-72
2021/07/14 10:20:50;;;;;;;37.60;33.80;;;;;;;;;;4945225;29;20428;-72
2021/07/14 10:23:35;;;;;;;35.53;30.93;;;;;;;;;;4947137;29;20305;-73
2021/07/14 10:26:20;;;;;;;33.10;27.70;;;;;;;;;;4947167;29;20212;-72
2021/07/14 10:29:06;;;;;;;34.80;30.87;;;;;;;;;;4954575;29;20211;-74
2021/07/14 10:31:51;;;;;;;34.73;30.17;;;;;;;;;;4950001;29;20317;-74
2021/07/14 10:34:37;;;;;;;30.47;27.23;;;;;;;;;;4932865;29;20233;-74
2021/07/14 10:37:23;;;;;;;33.23;27.87;;;;;;;;;;4934647;29;20353;-74
2021/07/14 10:40:09;;;;;;;30.53;27.23;;;;;;;;;;4950588;29;20322;-74
2021/07/14 10:42:55;;;;;;;34.37;26.87;;;;;;;;;;4943357;29;20511;-73
2021/07/14 10:45:41;;;;;;;31.17;26.60;;;;;;;;;;4942844;29;20213;-74
2021/07/14 10:48:26;;;;;;;33.30;28.23;;;;;;;;;;4947425;29;20213;-73
2021/07/14 10:51:11;;;;;;;31.77;28.27;;;;;;;;;;4946161;29;20608;-73
2021/07/14 10:53:59;;;;;;;27.43;22.60;;;;;;;;;;4945835;29;20241;-77
2021/07/14 10:56:46;;;;;;;29.40;23.77;;;;;;;;;;4946099;29;20217;-72
2021/07/14 10:59:31;;;;;;;29.67;25.33;;;;;;;;;;4937164;29;20349;-72
2021/07/14 11:02:17;;;;;;;29.87;25.00;;;;;;;;;;4945262;28;20209;-74
2021/07/14 11:05:01;;;;;;;31.50;25.33;;;;;;;;;;4945660;29;20215;-75
2021/07/14 11:07:47;;;;;;;31.77;25.40;;;;;;;;;;4948691;29;20257;-74
2021/07/14 11:10:35;;;;;;;36.10;31.50;;;;;;;;;;4938440;29;20520;-74
2021/07/14 11:13:31;;;;;;;35.60;27.33;;;;;;;;;;4943884;29;20233;-75
2021/07/14 11:16:27;;;;;;;35.33;27.70;;;;;;;;;;4936920;29;20698;-76
2021/07/14 11:19:13;;;;;;;33.37;22.87;;;;;;;;;;4945151;29;20288;-74
2021/07/14 11:21:59;;;;;;;31.57;26.97;;;;;;;;;;4940754;29;20283;-75
2021/07/14 11:24:57;;;;;;;32.63;25.07;;;;;;;;;;4943566;29;20224;-74
2021/07/14 11:27:47;;;;;;;33.70;27.50;;;;;;;;;;4944573;29;20654;-74
2021/07/14 11:30:37;;;;;;;32.47;25.43;;;;;;;;;;4938868;29;20887;-75
2021/07/14 11:33:27;;;;;;;31.60;25.80;;;;;;;;;;4943597;29;20296;-77
2021/07/14 11:36:13;;;;;;;33.83;22.60;;;;;;;;;;4946212;29;20204;-77
2021/07/14 11:38:58;;;;;;;37.60;27.57;;;;;;;;;;4940725;29;20296;-77
2021/07/14 11:41:43;;;;;;;32.17;24.83;;;;;;;;;;4951009;29;20212;-76
2021/07/14 11:44:38;;;;;;;31.70;25.27;;;;;;;;;;4943504;29;20741;-77
2021/07/14 11:47:32;;;;;;;32.67;25.57;;;;;;;;;;4949257;29;20667;-77
2021/07/14 11:50:37;;;;;;;37.53;26.20;;;;;;;;;;4953449;29;20717;-73
2021/07/14 11:53:36;;;;;;;32.93;26.97;;;;;;;;;;4953745;29;20229;-75
2021/07/14 11:56:23;;;;;;;32.77;26.23;;;;;;;;;;4953025;29;20353;-76
2021/07/14 11:59:09;;;;;;;34.00;26.20;;;;;;;;;;4948757;29;20692;-76
2021/07/14 12:01:56;;;;;;;30.17;24.67;;;;;;;;;;4953259;29;20580;-76
2021/07/14 12:05:01;;;;;;;30.00;26.70;;;;;;;;;;4953255;29;20239;-76
2021/07/14 12:07:51;;;;;;;29.00;24.98;;;;;;;;;;4945365;29;20490;-76
2021/07/14 12:10:37;;;;;;;31.57;26.73;;;;;;;;;;4953233;29;20287;-76
2021/07/14 12:13:22;;;;;;;33.83;25.57;;;;;;;;;;4947180;28;20237;-77
2021/07/14 12:16:07;;;;;;;33.10;27.27;;;;;;;;;;4945413;29;20715;-76
2021/07/14 12:18:53;;;;;;;31.63;27.73;;;;;;;;;;4952581;29;20216;-77
2021/07/14 12:21:39;;;;;;;32.47;26.77;;;;;;;;;;4952801;29;20263;-76
2021/07/14 12:24:31;;;;;;;30.80;25.50;;;;;;;;;;4952951;29;20316;-76
2021/07/14 12:27:20;;;;;;;28.73;23.93;;;;;;;;;;4952584;29;20217;-75
2021/07/14 12:30:06;;;;;;;28.17;25.17;;;;;;;;;;4952457;29;20701;-74
2021/07/14 12:32:52;;;;;;;31.33;27.10;;;;;;;;;;4952836;29;20615;-75
2021/07/14 12:35:39;;;;;;;31.23;27.50;;;;;;;;;;4953150;29;20220;-74
2021/07/14 12:38:25;;;;;;;30.50;27.20;;;;;;;;;;4951292;29;20296;-75
2021/07/14 12:41:12;;;;;;;32.57;26.53;;;;;;;;;;4949414;29;20348;-74
2021/07/14 12:44:01;;;;;;;29.17;25.90;;;;;;;;;;4950410;29;20227;-72
2021/07/14 12:46:46;;;;;;;31.00;26.80;;;;;;;;;;4951841;29;20204;-73
2021/07/14 12:49:32;;;;;;;30.23;25.93;;;;;;;;;;4952561;29;20241;-72
2021/07/14 12:52:17;;;;;;;29.83;25.67;;;;;;;;;;4952049;29;20626;-74
2021/07/14 12:55:03;;;;;;;27.27;24.33;;;;;;;;;;4952246;29;20713;-74
2021/07/14 12:57:49;;;;;;;28.47;25.37;;;;;;;;;;4952374;29;20285;-74
2021/07/14 13:00:35;;;;;;;28.23;24.53;;;;;;;;;;4951954;29;20256;-76
2021/07/14 13:03:22;;;;;;;28.40;25.40;;;;;;;;;;4952158;29;20228;-73
2021/07/14 13:06:08;;;;;;;26.63;23.93;;;;;;;;;;4953392;29;20628;-76
2021/07/14 13:08:54;;;;;;;28.13;23.70;;;;;;;;;;4951206;29;20211;-75
2021/07/14 13:11:40;;;;;;;27.00;24.17;;;;;;;;;;4949571;29;20292;-73
2021/07/14 13:14:26;;;;;;;24.53;22.00;;;;;;;;;;4949119;29;20226;-72
2021/07/14 13:17:11;;;;;;;25.13;22.53;;;;;;;;;;4939489;29;20243;-75
2021/07/14 13:20:13;;;;;;;25.10;22.43;;;;;;;;;;4940290;29;20217;-74
2021/07/14 13:22:59;;;;;;;23.07;20.77;;;;;;;;;;4941976;29;20220;-72
2021/07/14 13:25:47;;;;;;;23.27;20.77;;;;;;;;;;4939726;29;20230;-72
2021/07/14 13:28:33;;;;;;;23.73;21.33;;;;;;;;;;4936236;29;20351;-73
2021/07/14 13:31:23;;;;;;;23.17;20.77;;;;;;;;;;4944282;29;20208;-77
2021/07/14 13:34:13;;;;;;;23.80;21.50;;;;;;;;;;4943616;29;20229;-73
2021/07/14 13:36:58;;;;;;;24.07;21.60;;;;;;;;;;4938564;29;20217;-71
2021/07/14 13:39:43;;;;;;;23.73;21.27;;;;;;;;;;4942944;29;20340;-72
2021/07/14 13:42:33;;;;;;;25.23;22.83;;;;;;;;;;4943766;29;20197;-73
2021/07/14 13:45:26;;;;;;;22.50;20.20;;;;;;;;;;4951864;29;20629;-75
2021/07/14 13:48:15;;;;;;;24.43;22.23;;;;;;;;;;4954271;29;20789;-73
2021/07/14 13:51:00;;;;;;;23.87;21.57;;;;;;;;;;4952581;29;20253;-76
2021/07/14 13:53:45;;;;;;;24.00;21.70;;;;;;;;;;4959151;29;20307;-75
2021/07/14 13:56:30;;;;;;;23.53;21.20;;;;;;;;;;4962969;29;20224;-78
2021/07/14 13:59:19;;;;;;;23.53;21.23;;;;;;;;;;4956397;29;20205;-75
2021/07/14 14:02:05;;;;;;;23.10;20.53;;;;;;;;;;4960137;29;20221;-75
2021/07/14 14:04:54;;;;;;;22.43;20.30;;;;;;;;;;4954682;29;20247;-75
2021/07/14 14:07:41;;;;;;;25.13;22.90;;;;;;;;;;4952975;29;20455;-76
2021/07/14 14:10:26;;;;;;;24.13;21.63;;;;;;;;;;4959503;29;20291;-75
2021/07/14 14:13:27;;;;;;;23.50;21.30;;;;;;;;;;4949236;29;20236;-75
2021/07/14 14:16:12;;;;;;;21.30;18.97;;;;;;;;;;4956603;29;20212;-75
2021/07/14 14:18:57;;;;;;;23.27;21.17;;;;;;;;;;4953391;29;20233;-75
2021/07/14 14:21:51;;;;;;;21.93;19.87;;;;;;;;;;4954069;29;20216;-74
2021/07/14 14:24:36;;;;;;;22.70;20.70;;;;;;;;;;4952694;29;20232;-73
2021/07/14 14:27:32;;;;;;;23.60;21.43;;;;;;;;;;4952459;29;20460;-73
2021/07/14 14:30:18;;;;;;;24.30;22.10;;;;;;;;;;4945884;29;20219;-76
2021/07/14 14:33:04;;;;;;;22.73;20.63;;;;;;;;;;4954144;29;20225;-75
2021/07/14 14:35:49;;;;;;;23.37;21.03;;;;;;;;;;4955662;29;20324;-77
2021/07/14 14:38:36;;;;;;;24.57;22.27;;;;;;;;;;4950341;29;20209;-73
2021/07/14 14:41:20;;;;;;;22.80;20.43;;;;;;;;;;4955999;29;20225;-75
2021/07/14 14:44:05;;;;;;;22.87;20.77;;;;;;;;;;4955371;29;20717;-76
2021/07/14 14:46:51;;;;;;;22.30;20.40;;;;;;;;;;4954975;29;20207;-76
2021/07/14 14:49:36;;;;;;;23.27;21.07;;;;;;;;;;4949689;29;20260;-75
2021/07/14 14:52:21;;;;;;;24.40;22.23;;;;;;;;;;4955310;29;20221;-76
2021/07/14 14:55:08;;;;;;;23.63;21.53;;;;;;;;;;4955747;29;20212;-74
2021/07/14 14:57:53;;;;;;;22.07;20.03;;;;;;;;;;4948384;29;20205;-74
2021/07/14 15:00:41;;;;;;;23.03;20.87;;;;;;;;;;4948658;29;20237;-74
2021/07/14 15:03:26;;;;;;;23.97;21.77;;;;;;;;;;4956816;29;20330;-73
2021/07/14 15:06:11;;;;;;;24.63;22.42;;;;;;;;;;4953014;29;20913;-73
2021/07/14 15:08:56;;;;;;;21.70;19.57;;;;;;;;;;4953672;29;20717;-74
2021/07/14 15:11:43;;;;;;;23.73;21.50;;;;;;;;;;4954627;29;20220;-73
2021/07/14 15:14:28;;;;;;;22.60;20.80;;;;;;;;;;4953269;29;20764;-73
2021/07/14 15:17:14;;;;;;;23.97;21.77;;;;;;;;;;4941926;29;20212;-74
2021/07/14 15:19:59;;;;;;;25.23;22.97;;;;;;;;;;4954256;29;20677;-74
2021/07/14 15:22:44;;;;;;;24.87;22.67;;;;;;;;;;4947307;29;20335;-74
2021/07/14 15:28:38;;;;;;;25.97;23.50;;;;;;;;;;4953405;29;20224;-73
2021/07/14 15:28:45;;;;;;;25.87;23.37;;;;;;;;;;4953039;29;20205;-73
2021/07/14 15:31:30;;;;;;;25.93;23.43;;;;;;;;;;4953991;29;20215;-72
2021/07/14 15:34:15;;;;;;;24.47;22.07;;;;;;;;;;4950812;29;20304;-74
2021/07/14 15:37:00;;;;;;;23.87;21.43;;;;;;;;;;4946843;29;20211;-73
2021/07/14 15:39:45;;;;;;;27.90;25.10;;;;;;;;;;4953010;29;20245;-72
2021/07/14 15:42:30;;;;;;;27.23;24.63;;;;;;;;;;4945310;29;20240;-72
2021/07/14 15:45:17;;;;;;;25.97;23.40;;;;;;;;;;4953591;29;20227;-72
2021/07/14 15:48:02;;;;;;;25.67;23.27;;;;;;;;;;4952030;28;20216;-72
2021/07/14 15:50:47;;;;;;;24.90;22.57;;;;;;;;;;4948317;29;20208;-73
2021/07/14 15:53:32;;;;;;;24.57;22.27;;;;;;;;;;4953187;29;20243;-71
2021/07/14 15:56:17;;;;;;;23.63;21.43;;;;;;;;;;4953958;29;20641;-72
2021/07/14 15:59:01;;;;;;;23.57;21.53;;;;;;;;;;4947246;29;20333;-72
2021/07/14 16:01:48;;;;;;;24.03;21.73;;;;;;;;;;4953642;29;20383;-72
2021/07/14 16:04:33;;;;;;;25.10;22.80;;;;;;;;;;4952807;29;20447;-73
2021/07/14 16:07:18;;;;;;;23.37;21.10;;;;;;;;;;4952932;29;20854;-71
2021/07/14 16:10:03;;;;;;;23.20;21.13;;;;;;;;;;4946015;29;20213;-71
2021/07/14 16:12:48;;;;;;;23.23;20.93;;;;;;;;;;4952053;29;20237;-73
2021/07/14 16:15:33;;;;;;;23.97;21.87;;;;;;;;;;4953005;29;20353;-75